createdAt,value
2023-05-16T00:00:12.240Z,86.32
2023-05-16T00:03:20.953Z,85.99
2023-05-16T00:06:29.127Z,86.01
2023-05-16T00:09:37.267Z,86.03
2023-05-16T00:12:50.056Z,86.27
2023-05-16T00:15:59.454Z,86.89
2023-05-16T00:19:07.790Z,86.69
2023-05-16T00:22:16.579Z,87.10
2023-05-16T00:25:24.813Z,87.36
2023-05-16T00:28:34.241Z,86.81
2023-05-16T00:31:42.546Z,86.75
2023-05-16T00:34:50.867Z,85.55
2023-05-16T00:37:59.004Z,86.44
2023-05-16T00:41:07.154Z,86.00
2023-05-16T00:44:16.646Z,85.91
2023-05-16T00:47:24.756Z,85.25
2023-05-16T00:50:35.257Z,86.28
2023-05-16T00:53:44.418Z,86.28
2023-05-16T00:56:53.102Z,86.50
2023-05-16T01:00:03.090Z,85.61
2023-05-16T01:03:11.970Z,85.38
2023-05-16T01:06:20.831Z,85.19
2023-05-16T01:09:29.549Z,84.17
2023-05-16T01:12:47.181Z,85.06
2023-05-16T01:16:10.926Z,86.30
2023-05-16T01:19:47.195Z,85.96
2023-05-16T01:23:28.888Z,86.11
2023-05-16T01:26:39.594Z,86.27
2023-05-16T01:29:48.271Z,86.29
2023-05-16T01:32:56.865Z,86.87
2023-05-16T01:36:15.032Z,86.36
2023-05-16T01:39:34.007Z,86.46
2023-05-16T01:42:49.577Z,87.23
2023-05-16T01:46:06.338Z,87.39
2023-05-16T01:49:24.297Z,86.38
2023-05-16T01:52:43.459Z,87.20
2023-05-16T01:55:54.560Z,86.27
2023-05-16T01:59:05.178Z,86.50
2023-05-16T02:02:13.873Z,87.30
2023-05-16T02:05:22.153Z,86.35
2023-05-16T02:08:31.187Z,85.84
2023-05-16T02:11:39.667Z,85.97
2023-05-16T02:14:49.548Z,87.23
2023-05-16T02:17:58.656Z,86.82
2023-05-16T02:21:07.101Z,87.63
2023-05-16T02:24:17.934Z,87.17
2023-05-16T02:27:26.322Z,86.80
2023-05-16T02:30:35.803Z,86.86
2023-05-16T02:33:43.968Z,86.83
2023-05-16T02:36:52.042Z,86.65
2023-05-16T02:40:00.194Z,87.50
2023-05-16T02:43:08.268Z,86.35
2023-05-16T02:46:27.376Z,86.57
2023-05-16T02:49:35.668Z,87.29
2023-05-16T02:52:43.734Z,87.71
2023-05-16T02:55:51.856Z,87.26
2023-05-16T02:59:01.697Z,87.68
2023-05-16T03:02:11.386Z,87.44
2023-05-16T03:05:19.788Z,87.94
2023-05-16T03:08:27.932Z,87.92
2023-05-16T03:11:40.842Z,87.80
2023-05-16T03:14:49.232Z,88.11
2023-05-16T03:18:00.131Z,87.74
2023-05-16T03:21:10.478Z,87.68
2023-05-16T03:24:18.757Z,87.34
2023-05-16T03:27:28.799Z,87.75
2023-05-16T03:30:37.518Z,86.85
2023-05-16T03:33:46.953Z,86.78
2023-05-16T03:36:55.181Z,85.29
2023-05-16T03:40:05.877Z,85.66
2023-05-16T03:43:13.974Z,86.57
2023-05-16T03:46:22.210Z,86.63
2023-05-16T03:49:31.742Z,87.16
2023-05-16T03:52:39.815Z,87.39
2023-05-16T03:55:48.847Z,87.02
2023-05-16T03:58:57.635Z,87.12
2023-05-16T04:02:06.232Z,87.04
2023-05-16T04:05:15.872Z,85.71
2023-05-16T04:08:24.149Z,85.31
2023-05-16T04:11:32.461Z,85.96
2023-05-16T04:14:40.878Z,86.92
2023-05-16T04:17:49.076Z,87.48
2023-05-16T04:20:58.541Z,86.26
2023-05-16T04:24:08.286Z,86.01
2023-05-16T04:27:16.369Z,85.77
2023-05-16T04:30:24.442Z,86.69
2023-05-16T04:33:32.577Z,86.83
2023-05-16T04:36:42.120Z,86.11
2023-05-16T04:39:50.516Z,86.26
2023-05-16T04:42:58.650Z,86.63
2023-05-16T04:46:07.562Z,86.12
2023-05-16T04:49:15.770Z,85.87
2023-05-16T04:52:25.310Z,84.34
2023-05-16T04:55:33.406Z,84.96
2023-05-16T04:58:42.911Z,84.94
2023-05-16T05:01:51.172Z,84.66
2023-05-16T05:04:59.467Z,84.12
2023-05-16T05:08:09.717Z,84.38
2023-05-16T05:11:17.868Z,84.20
2023-05-16T05:14:26.257Z,84.96
2023-05-16T05:17:34.520Z,84.13
2023-05-16T05:20:43.554Z,84.68
2023-05-16T05:23:53.183Z,85.09
2023-05-16T05:27:01.269Z,84.78
2023-05-16T05:30:11.374Z,85.31
2023-05-16T05:33:19.737Z,85.03
2023-05-16T05:36:27.958Z,84.78
2023-05-16T05:39:37.377Z,85.44
2023-05-16T05:42:47.066Z,85.12
2023-05-16T05:45:55.956Z,83.55
2023-05-16T05:49:04.532Z,83.79
2023-05-16T05:52:12.693Z,83.47
2023-05-16T05:55:22.223Z,83.40
2023-05-16T05:58:30.678Z,84.22
2023-05-16T06:01:39.636Z,83.87
2023-05-16T06:04:47.837Z,84.11
2023-05-16T06:07:56.039Z,84.17
2023-05-16T06:11:05.605Z,83.92
2023-05-16T06:14:15.157Z,83.21
2023-05-16T06:17:23.670Z,83.19
2023-05-16T06:20:31.928Z,82.95
2023-05-16T06:23:40.102Z,82.94
2023-05-16T06:26:51.026Z,83.13
2023-05-16T06:29:59.440Z,83.53
2023-05-16T06:33:07.534Z,83.13
2023-05-16T06:36:15.706Z,83.48
2023-05-16T06:39:23.793Z,83.44
2023-05-16T06:42:33.266Z,82.89
2023-05-16T06:45:41.572Z,83.55
2023-05-16T06:48:49.711Z,83.82
2023-05-16T06:51:57.941Z,83.76
2023-05-16T06:55:07.030Z,82.84
2023-05-16T06:58:16.636Z,82.82
2023-05-16T07:01:24.878Z,82.57
2023-05-16T07:04:34.439Z,82.71
2023-05-16T07:07:42.830Z,82.81
2023-05-16T07:10:51.015Z,83.29
2023-05-16T07:14:00.716Z,83.85
2023-05-16T07:17:09.212Z,83.53
2023-05-16T07:20:17.540Z,84.60
2023-05-16T07:23:25.936Z,84.29
2023-05-16T07:26:34.278Z,84.81
2023-05-16T07:29:43.774Z,85.04
2023-05-16T07:32:54.208Z,84.75
2023-05-16T07:36:15.487Z,84.89
2023-05-16T07:39:24.719Z,84.13
2023-05-16T07:42:33.131Z,84.20
2023-05-16T07:45:42.889Z,83.27
2023-05-16T07:48:51.565Z,83.74
2023-05-16T07:51:59.733Z,82.77
2023-05-16T07:55:09.770Z,83.31
2023-05-16T07:58:18.132Z,81.46
2023-05-16T08:01:27.753Z,81.23
2023-05-16T08:04:36.167Z,80.90
2023-05-16T08:07:44.376Z,81.60
2023-05-16T08:10:52.516Z,81.48
2023-05-16T08:14:00.921Z,81.22
2023-05-16T08:17:10.443Z,81.68
2023-05-16T08:20:18.704Z,81.49
2023-05-16T08:23:26.874Z,81.00
2023-05-16T08:26:35.672Z,79.72
2023-05-16T08:29:44.310Z,79.66
2023-05-16T08:32:54.156Z,77.82
2023-05-16T08:36:07.004Z,74.70
2023-05-16T08:39:15.320Z,75.38
2023-05-16T08:42:23.532Z,73.03
2023-05-16T08:45:35.361Z,71.22
2023-05-16T08:48:48.532Z,69.85
2023-05-16T08:51:59.587Z,69.36
2023-05-16T08:55:11.983Z,67.01
2023-05-16T08:58:21.790Z,66.37
2023-05-16T09:01:31.293Z,71.94
2023-05-16T09:04:44.402Z,72.48
2023-05-16T09:07:52.790Z,71.03
2023-05-16T09:11:01.755Z,70.51
2023-05-16T09:14:09.891Z,72.83
2023-05-16T09:17:20.542Z,69.40
2023-05-16T09:20:35.532Z,72.85
2023-05-16T09:23:46.516Z,74.02
2023-05-16T09:26:55.928Z,76.45
2023-05-16T09:30:04.667Z,77.74
2023-05-16T09:33:13.621Z,77.78
2023-05-16T09:36:23.155Z,75.61
2023-05-16T09:39:31.299Z,74.35
2023-05-16T09:42:40.334Z,75.78
2023-05-16T09:45:50.372Z,75.55
2023-05-16T09:48:58.759Z,75.92
2023-05-16T09:52:09.383Z,77.10
2023-05-16T09:55:18.976Z,75.86
2023-05-16T09:58:31.243Z,77.49
2023-05-16T10:01:39.776Z,75.44
2023-05-16T10:04:48.093Z,74.68
2023-05-16T10:07:58.736Z,76.30
2023-05-16T10:11:07.798Z,75.78
2023-05-16T10:14:19.988Z,78.12
2023-05-16T10:17:32.436Z,76.98
2023-05-16T10:20:45.391Z,76.72
2023-05-16T10:23:59.749Z,75.01
2023-05-16T10:27:08.416Z,75.47
2023-05-16T10:30:17.629Z,74.43
2023-05-16T10:33:26.142Z,73.36
2023-05-16T10:36:35.737Z,73.58
2023-05-16T10:39:46.322Z,76.95
2023-05-16T10:42:58.414Z,76.18
2023-05-16T10:46:10.247Z,75.76
2023-05-16T10:49:24.083Z,75.71
2023-05-16T10:52:35.359Z,75.36
2023-05-16T10:55:52.347Z,75.13
2023-05-16T10:59:13.089Z,75.75
2023-05-16T11:02:28.607Z,77.39
2023-05-16T11:05:37.145Z,77.32
2023-05-16T11:09:06.454Z,75.58
2023-05-16T11:12:16.204Z,75.95
2023-05-16T11:15:30.320Z,74.51
2023-05-16T11:18:52.040Z,74.79
2023-05-16T11:22:22.598Z,76.26
2023-05-16T11:25:41.010Z,73.78
2023-05-16T11:28:54.091Z,74.24
2023-05-16T11:32:04.371Z,72.82
2023-05-16T11:35:15.627Z,74.03
2023-05-16T11:38:23.754Z,75.18
2023-05-16T11:41:33.857Z,77.83
2023-05-16T11:44:43.368Z,76.44
2023-05-16T11:47:51.606Z,76.14
2023-05-16T11:50:59.848Z,76.70
2023-05-16T11:54:10.477Z,79.38
2023-05-16T11:57:20.330Z,80.88
2023-05-16T12:00:30.037Z,80.50
2023-05-16T12:03:39.307Z,81.68
2023-05-16T12:07:01.676Z,81.82
2023-05-16T12:10:12.159Z,84.57
2023-05-16T12:13:22.693Z,84.64
2023-05-16T12:16:32.939Z,83.16
2023-05-16T12:19:41.285Z,79.91
2023-05-16T12:22:49.434Z,85.15
2023-05-16T12:26:00.931Z,86.41
2023-05-16T12:29:11.385Z,85.82
2023-05-16T12:32:21.609Z,87.69
2023-05-16T12:35:33.450Z,88.23
2023-05-16T12:38:42.158Z,89.04
2023-05-16T12:41:50.549Z,88.33
2023-05-16T12:44:58.750Z,88.33
2023-05-16T12:48:13.969Z,88.79
2023-05-16T12:51:22.153Z,88.93
2023-05-16T12:54:30.242Z,89.51
2023-05-16T12:57:39.341Z,89.43
2023-05-16T13:00:48.611Z,83.19
2023-05-16T13:03:58.933Z,84.75
2023-05-16T13:07:07.172Z,85.37
2023-05-16T13:10:15.319Z,84.30
2023-05-16T13:13:35.566Z,83.80
2023-05-16T13:16:44.911Z,85.21
2023-05-16T13:19:54.494Z,84.08
2023-05-16T13:23:02.664Z,83.04
2023-05-16T13:26:10.823Z,82.97
2023-05-16T13:29:19.002Z,82.74
2023-05-16T13:32:27.719Z,84.58
2023-05-16T13:35:37.273Z,84.82
2023-05-16T13:38:45.373Z,84.72
2023-05-16T13:41:54.216Z,84.34
2023-05-16T13:45:02.335Z,84.72
2023-05-16T13:48:11.478Z,85.01
2023-05-16T13:51:20.983Z,84.84
2023-05-16T13:54:29.391Z,84.95
2023-05-16T13:57:37.612Z,84.27
2023-05-16T14:00:46.308Z,86.54
2023-05-16T14:03:54.684Z,85.73
2023-05-16T14:07:04.327Z,84.59
2023-05-16T14:10:12.789Z,84.56
2023-05-16T14:13:21.155Z,83.81
2023-05-16T14:16:31.105Z,86.23
2023-05-16T14:19:39.365Z,86.51
2023-05-16T14:22:48.903Z,84.41
2023-05-16T14:25:57.003Z,86.26
2023-05-16T14:29:05.212Z,85.81
2023-05-16T14:32:13.929Z,86.13
2023-05-16T14:35:22.216Z,85.05
2023-05-16T14:38:31.756Z,84.90
2023-05-16T14:41:40.130Z,86.83
2023-05-16T14:44:48.335Z,85.33
2023-05-16T14:47:56.690Z,86.79
2023-05-16T14:51:05.245Z,86.72
2023-05-16T14:54:15.018Z,86.50
2023-05-16T14:57:23.206Z,86.85
2023-05-16T15:00:32.112Z,87.53
2023-05-16T15:03:53.600Z,88.17
2023-05-16T15:07:03.210Z,86.89
2023-05-16T15:10:12.978Z,87.15
2023-05-16T15:13:21.251Z,87.66
2023-05-16T15:16:31.217Z,87.49
2023-05-16T15:19:39.485Z,88.14
2023-05-16T15:22:49.255Z,87.79
2023-05-16T15:25:59.174Z,87.82
2023-05-16T15:29:07.339Z,87.87
2023-05-16T15:32:17.095Z,87.76
2023-05-16T15:35:26.447Z,87.62
2023-05-16T15:38:36.248Z,87.38
2023-05-16T15:42:08.501Z,87.30
2023-05-16T15:45:14.481Z,87.46
2023-05-16T15:48:22.706Z,87.92
2023-05-16T15:51:30.912Z,87.32
2023-05-16T15:54:39.023Z,87.16
2023-05-16T15:57:48.595Z,86.82
2023-05-16T16:00:57.049Z,88.16
2023-05-16T16:04:05.609Z,87.74
2023-05-16T16:07:14.373Z,86.97
2023-05-16T16:10:22.749Z,86.54
2023-05-16T16:13:34.734Z,86.76
2023-05-16T16:16:43.877Z,86.73
2023-05-16T16:19:52.522Z,85.81
2023-05-16T16:23:01.820Z,86.86
2023-05-16T16:26:10.458Z,87.49
2023-05-16T16:29:21.238Z,86.96
2023-05-16T16:32:30.331Z,85.94
2023-05-16T16:35:39.563Z,86.76
2023-05-16T16:38:47.984Z,87.39
2023-05-16T16:41:56.811Z,86.65
2023-05-16T16:45:08.144Z,86.06
2023-05-16T16:48:16.501Z,85.66
2023-05-16T16:51:24.705Z,86.17
2023-05-16T16:54:32.902Z,86.45
2023-05-16T16:57:42.752Z,86.45
2023-05-16T17:00:53.054Z,86.37
2023-05-16T17:04:11.322Z,86.66
2023-05-16T17:07:19.971Z,86.88
2023-05-16T17:10:28.577Z,87.62
2023-05-16T17:13:37.771Z,87.90
2023-05-16T17:16:48.048Z,88.53
2023-05-16T17:19:57.784Z,89.33
2023-05-16T17:23:06.494Z,90.13
2023-05-16T17:26:16.641Z,90.80
2023-05-16T17:29:25.641Z,91.23
2023-05-16T17:32:36.370Z,91.23
2023-05-16T17:35:45.135Z,91.00
2023-05-16T17:38:54.081Z,91.06
2023-05-16T17:42:02.610Z,91.27
2023-05-16T17:45:14.798Z,91.60
2023-05-16T17:48:24.777Z,91.31
2023-05-16T17:51:47.752Z,91.36
2023-05-16T17:54:56.251Z,90.68
2023-05-16T17:58:06.543Z,91.37
2023-05-16T18:01:16.850Z,92.02
2023-05-16T18:04:27.686Z,91.67
2023-05-16T18:07:36.259Z,91.92
2023-05-16T18:10:52.024Z,92.03
2023-05-16T18:14:02.280Z,91.32
2023-05-16T18:17:10.696Z,91.70
2023-05-16T18:20:21.696Z,91.59
2023-05-16T18:23:31.905Z,91.05
2023-05-16T18:26:40.777Z,90.71
2023-05-16T18:29:49.164Z,90.50
2023-05-16T18:32:58.384Z,90.61
2023-05-16T18:36:11.009Z,90.37
2023-05-16T18:39:20.736Z,90.25
2023-05-16T18:42:30.086Z,89.35
2023-05-16T18:45:39.553Z,89.84
2023-05-16T18:48:48.111Z,89.41
2023-05-16T18:51:58.187Z,89.48
2023-05-16T18:55:08.272Z,89.58
2023-05-16T18:58:16.926Z,89.71
2023-05-16T19:01:25.887Z,89.94
2023-05-16T19:04:34.749Z,90.05
2023-05-16T19:07:45.828Z,90.43
2023-05-16T19:10:54.947Z,89.35
2023-05-16T19:14:03.980Z,90.17
2023-05-16T19:17:12.451Z,89.35
2023-05-16T19:20:21.669Z,89.89
2023-05-16T19:23:32.703Z,88.37
2023-05-16T19:26:41.772Z,89.99
2023-05-16T19:29:50.690Z,89.97
2023-05-16T19:32:59.860Z,89.37
2023-05-16T19:36:10.058Z,89.76
2023-05-16T19:39:20.389Z,89.63
2023-05-16T19:42:30.359Z,89.28
2023-05-16T19:45:39.523Z,89.07
2023-05-16T19:48:51.673Z,89.64
2023-05-16T19:52:02.977Z,89.36
2023-05-16T19:55:13.360Z,88.94
2023-05-16T19:58:23.224Z,88.05
2023-05-16T20:01:31.894Z,88.64
2023-05-16T20:04:40.328Z,88.33
2023-05-16T20:07:49.138Z,88.83
2023-05-16T20:10:58.833Z,88.24
2023-05-16T20:14:09.007Z,88.40
2023-05-16T20:17:18.028Z,88.94
2023-05-16T20:20:27.128Z,89.17
2023-05-16T20:23:36.288Z,88.54
2023-05-16T20:26:46.172Z,88.12
2023-05-16T20:29:56.961Z,88.52
2023-05-16T20:33:05.647Z,87.80
2023-05-16T20:36:14.408Z,88.13
2023-05-16T20:39:23.004Z,87.76
2023-05-16T20:42:33.505Z,87.97
2023-05-16T20:45:41.679Z,87.87
2023-05-16T20:48:50.547Z,87.25
2023-05-16T20:51:59.488Z,86.86
2023-05-16T20:55:11.274Z,87.02
2023-05-16T20:58:24.060Z,87.38
2023-05-16T21:01:33.397Z,86.87
2023-05-16T21:04:41.819Z,88.20
2023-05-16T21:07:50.462Z,87.71
2023-05-16T21:10:59.145Z,87.94
2023-05-16T21:14:09.158Z,88.29
2023-05-16T21:17:17.609Z,88.16
2023-05-16T21:20:28.549Z,87.09
2023-05-16T21:23:36.932Z,87.85
2023-05-16T21:26:45.725Z,87.47
2023-05-16T21:29:55.744Z,87.61
2023-05-16T21:33:04.174Z,88.21
2023-05-16T21:36:12.809Z,88.15
2023-05-16T21:39:21.332Z,87.79
2023-05-16T21:42:29.875Z,87.52
2023-05-16T21:45:40.218Z,87.06
2023-05-16T21:48:48.748Z,86.87
2023-05-16T21:51:57.424Z,87.65
2023-05-16T21:55:09.530Z,86.94
2023-05-16T21:58:19.162Z,86.04
2023-05-16T22:01:29.659Z,86.05
2023-05-16T22:04:40.971Z,86.45
2023-05-16T22:07:49.315Z,86.63
2023-05-16T22:10:59.046Z,86.47
2023-05-16T22:14:07.244Z,86.83
2023-05-16T22:17:18.043Z,85.23
2023-05-16T22:20:27.788Z,84.96
2023-05-16T22:23:36.129Z,85.24
2023-05-16T22:26:44.627Z,84.69
2023-05-16T22:29:52.810Z,85.59
2023-05-16T22:33:03.759Z,84.73
2023-05-16T22:36:11.984Z,84.58
2023-05-16T22:39:20.730Z,83.96
2023-05-16T22:42:28.976Z,85.01
2023-05-16T22:45:37.120Z,85.23
2023-05-16T22:48:46.984Z,84.63
2023-05-16T22:51:55.551Z,85.20
2023-05-16T22:55:04.314Z,83.15
2023-05-16T22:58:12.492Z,83.78
2023-05-16T23:01:21.998Z,83.63
2023-05-16T23:04:31.730Z,82.82
2023-05-16T23:07:39.935Z,83.75
2023-05-16T23:10:48.439Z,82.29
2023-05-16T23:13:56.720Z,83.22
2023-05-16T23:17:05.406Z,83.83
2023-05-16T23:20:16.034Z,83.36
2023-05-16T23:23:24.887Z,83.71
2023-05-16T23:26:33.024Z,82.81
2023-05-16T23:29:41.492Z,83.55
2023-05-16T23:32:51.463Z,83.71
2023-05-16T23:36:01.302Z,84.00
2023-05-16T23:39:09.702Z,82.79
2023-05-16T23:42:18.038Z,82.34
2023-05-16T23:45:27.996Z,83.22
2023-05-16T23:48:36.823Z,82.29
2023-05-16T23:51:57.365Z,82.17
2023-05-16T23:55:07.649Z,82.87
2023-05-16T23:58:16.120Z,82.88
